PWSweather.com
Personal Weather Stations
Station Observations
WD4JKH
Forsyth, GA 31029

Forsyth, GA 31029

Lat: 33.033225, Lon: -83.927995

Elevation: 709

Station Type: Davis Vantage VUE

High Low Average
Temperature 69.6°F20.9°C 49.8°F9.9°C 59.8°F15.4°C
Dew Point 53.6°F12.0°C 33.1°F0.6°C 42.3°F5.7°C
Winds 6.2 mph 10.0 kmh Calm Calm 2.0 mph W3.2 kmh W
Wind Gusts 13.0 mph20.9 kmh 1.0 mph1.6 kmh 7.0 mph11.3 kmh
Humidity 89% 30% 55%
Pressure 30.02 in1016.6 mb 29.86 in1011.2 mb -
Precipitation 0.00 in0.0 mm - -
Hour Temp Dew Point Humidity Winds Wind Gusts Pressure Precip Precip Rate Daily Precip Total
12:04 AM 56.1°F13.4°C 51.7°F10.9°C 85% 1.2 mph SW1.9 kmh SW 3.0 mph4.8 kmh 29.87 in1011.5 mb 0.00 in0.0 mm 0.00 in0.0 mm 0.00 in0.0 mm
12:09 AM 56.3°F13.5°C 51.8°F11.0°C 85% 1.3 mph SW2.1 kmh SW 3.0 mph4.8 kmh 29.87 in1011.5 mb 0.00 in0.0 mm 0.00 in0.0 mm 0.00 in0.0 mm
12:14 AM 56.7°F13.7°C 52.2°F11.2°C 85% 2.6 mph WSW4.2 kmh WSW 6.0 mph9.7 kmh 29.87 in1011.5 mb 0.00 in0.0 mm 0.00 in0.0 mm 0.00 in0.0 mm
12:19 AM 57.3°F14.1°C 52.8°F11.6°C 85% 2.9 mph WSW4.7 kmh WSW 6.0 mph9.7 kmh 29.87 in1011.5 mb 0.00 in0.0 mm 0.00 in0.0 mm 0.00 in0.0 mm
12:24 AM 58.1°F14.5°C 53.3°F11.8°C 84% 3.2 mph WSW5.1 kmh WSW 10.0 mph16.1 kmh 29.87 in1011.5 mb 0.00 in0.0 mm 0.00 in0.0 mm 0.00 in0.0 mm
12:29 AM 58.2°F14.6°C 53.1°F11.7°C 83% 2.4 mph SW3.9 kmh SW 10.0 mph16.1 kmh 29.86 in1011.2 mb 0.00 in0.0 mm 0.00 in0.0 mm 0.00 in0.0 mm
12:34 AM 58.2°F14.6°C 53.4°F11.9°C 84% 2.4 mph WSW3.9 kmh WSW 10.0 mph16.1 kmh 29.86 in1011.2 mb 0.00 in0.0 mm 0.00 in0.0 mm 0.00 in0.0 mm
12:39 AM 58.2°F14.6°C 53.4°F11.9°C 84% 2.0 mph WSW3.2 kmh WSW 10.0 mph16.1 kmh 29.86 in1011.2 mb 0.00 in0.0 mm 0.00 in0.0 mm 0.00 in0.0 mm
12:44 AM 58.1°F14.5°C 53.3°F11.8°C 84% 3.3 mph WSW5.3 kmh WSW 8.0 mph12.9 kmh 29.86 in1011.2 mb 0.00 in0.0 mm 0.00 in0.0 mm 0.00 in0.0 mm
12:49 AM 58.0°F14.4°C 53.2°F11.8°C 84% 2.9 mph SW4.7 kmh SW 8.0 mph12.9 kmh 29.87 in1011.5 mb 0.00 in0.0 mm 0.00 in0.0 mm 0.00 in0.0 mm
12:54 AM 57.8°F14.3°C 53.3°F11.8°C 85% 2.5 mph WSW4.0 kmh WSW 8.0 mph12.9 kmh 29.86 in1011.2 mb 0.00 in0.0 mm 0.00 in0.0 mm 0.00 in0.0 mm
12:58 AM 57.8°F14.3°C 53.6°F12.0°C 86% 2.5 mph WSW4.0 kmh WSW 8.0 mph12.9 kmh 29.86 in1011.2 mb 0.00 in0.0 mm 0.00 in0.0 mm 0.00 in0.0 mm
01:03 AM 57.7°F14.3°C 53.5°F11.9°C 86% 2.8 mph SW4.5 kmh SW 7.0 mph11.3 kmh 29.86 in1011.2 mb 0.00 in0.0 mm 0.00 in0.0 mm 0.00 in0.0 mm
01:08 AM 57.5°F14.2°C 53.3°F11.8°C 86% 2.2 mph WSW3.5 kmh WSW 7.0 mph11.3 kmh 29.86 in1011.2 mb 0.00 in0.0 mm 0.00 in0.0 mm 0.00 in0.0 mm
01:13 AM 57.3°F14.1°C 53.5°F11.9°C 87% 2.3 mph WSW3.7 kmh WSW 7.0 mph11.3 kmh 29.87 in1011.5 mb 0.00 in0.0 mm 0.00 in0.0 mm 0.00 in0.0 mm
01:18 AM 57.1°F13.9°C 53.3°F11.8°C 87% 2.1 mph SW3.4 kmh SW 7.0 mph11.3 kmh 29.87 in1011.5 mb 0.00 in0.0 mm 0.00 in0.0 mm 0.00 in0.0 mm
01:23 AM 56.8°F13.8°C 53.3°F11.8°C 88% 1.9 mph SW3.1 kmh SW 6.0 mph9.7 kmh 29.87 in1011.5 mb 0.00 in0.0 mm 0.00 in0.0 mm 0.00 in0.0 mm
01:28 AM 56.7°F13.7°C 53.2°F11.8°C 88% 1.3 mph SW2.1 kmh SW 5.0 mph8.0 kmh 29.87 in1011.5 mb 0.00 in0.0 mm 0.00 in0.0 mm 0.00 in0.0 mm
01:33 AM 56.5°F13.6°C 53.3°F11.8°C 89% 1.4 mph WSW2.3 kmh WSW 5.0 mph8.0 kmh 29.87 in1011.5 mb 0.00 in0.0 mm 0.00 in0.0 mm 0.00 in0.0 mm
01:38 AM 56.5°F13.6°C 53.0°F11.7°C 88% 2.0 mph WSW3.2 kmh WSW 5.0 mph8.0 kmh 29.87 in1011.5 mb 0.00 in0.0 mm 0.00 in0.0 mm 0.00 in0.0 mm
01:43 AM 56.5°F13.6°C 53.0°F11.7°C 88% 1.8 mph WSW2.9 kmh WSW 5.0 mph8.0 kmh 29.87 in1011.5 mb 0.00 in0.0 mm 0.00 in0.0 mm 0.00 in0.0 mm
01:48 AM 56.7°F13.7°C 53.2°F11.8°C 88% 1.7 mph WSW2.7 kmh WSW 8.0 mph12.9 kmh 29.87 in1011.5 mb 0.00 in0.0 mm 0.00 in0.0 mm 0.00 in0.0 mm
01:53 AM 56.7°F13.7°C 52.9°F11.6°C 87% 1.3 mph WSW2.1 kmh WSW 8.0 mph12.9 kmh 29.87 in1011.5 mb 0.00 in0.0 mm 0.00 in0.0 mm 0.00 in0.0 mm
01:58 AM 56.7°F13.7°C 52.9°F11.6°C 87% 1.7 mph W2.7 kmh W 8.0 mph12.9 kmh 29.87 in1011.5 mb 0.00 in0.0 mm 0.00 in0.0 mm 0.00 in0.0 mm
02:03 AM 56.7°F13.7°C 53.2°F11.8°C 88% 3.3 mph WSW5.3 kmh WSW 8.0 mph12.9 kmh 29.87 in1011.5 mb 0.00 in0.0 mm 0.00 in0.0 mm 0.00 in0.0 mm
02:08 AM 56.8°F13.8°C 53.0°F11.7°C 87% 1.8 mph WSW2.9 kmh WSW 7.0 mph11.3 kmh 29.88 in1011.9 mb 0.00 in0.0 mm 0.00 in0.0 mm 0.00 in0.0 mm
02:13 AM 56.7°F13.7°C 52.9°F11.6°C 87% 1.5 mph WSW2.4 kmh WSW 7.0 mph11.3 kmh 29.88 in1011.9 mb 0.00 in0.0 mm 0.00 in0.0 mm 0.00 in0.0 mm
02:18 AM 56.7°F13.7°C 52.9°F11.6°C 87% 2.1 mph W3.4 kmh W 7.0 mph11.3 kmh 29.88 in1011.9 mb 0.00 in0.0 mm 0.00 in0.0 mm 0.00 in0.0 mm
02:23 AM 56.6°F13.7°C 52.8°F11.6°C 87% 1.3 mph WSW2.1 kmh WSW 5.0 mph8.0 kmh 29.88 in1011.9 mb 0.00 in0.0 mm 0.00 in0.0 mm 0.00 in0.0 mm
02:28 AM 56.5°F13.6°C 52.7°F11.5°C 87% 1.8 mph WSW2.9 kmh WSW 5.0 mph8.0 kmh 29.88 in1011.9 mb 0.00 in0.0 mm 0.00 in0.0 mm 0.00 in0.0 mm
02:33 AM 56.4°F13.6°C 52.6°F11.4°C 87% 1.9 mph WSW3.1 kmh WSW 5.0 mph8.0 kmh 29.88 in1011.9 mb 0.00 in0.0 mm 0.00 in0.0 mm 0.00 in0.0 mm
02:38 AM 56.5°F13.6°C 52.4°F11.3°C 86% 2.4 mph WSW3.9 kmh WSW 5.0 mph8.0 kmh 29.88 in1011.9 mb 0.00 in0.0 mm 0.00 in0.0 mm 0.00 in0.0 mm
02:43 AM 56.7°F13.7°C 52.2°F11.2°C 85% 1.9 mph WSW3.1 kmh WSW 5.0 mph8.0 kmh 29.88 in1011.9 mb 0.00 in0.0 mm 0.00 in0.0 mm 0.00 in0.0 mm
02:48 AM 56.8°F13.8°C 52.3°F11.3°C 85% 1.9 mph WSW3.1 kmh WSW 5.0 mph8.0 kmh 29.88 in1011.9 mb 0.00 in0.0 mm 0.00 in0.0 mm 0.00 in0.0 mm
02:53 AM 56.6°F13.7°C 52.1°F11.2°C 85% 2.0 mph SW3.2 kmh SW 5.0 mph8.0 kmh 29.88 in1011.9 mb 0.00 in0.0 mm 0.00 in0.0 mm 0.00 in0.0 mm
02:58 AM 56.3°F13.5°C 52.2°F11.2°C 86% 1.9 mph WSW3.1 kmh WSW 5.0 mph8.0 kmh 29.88 in1011.9 mb 0.00 in0.0 mm 0.00 in0.0 mm 0.00 in0.0 mm
03:03 AM 56.1°F13.4°C 52.3°F11.3°C 87% 1.8 mph SW2.9 kmh SW 5.0 mph8.0 kmh 29.88 in1011.9 mb 0.00 in0.0 mm 0.00 in0.0 mm 0.00 in0.0 mm
03:08 AM 55.9°F13.3°C 52.1°F11.2°C 87% 1.3 mph SW2.1 kmh SW 5.0 mph8.0 kmh 29.88 in1011.9 mb 0.00 in0.0 mm 0.00 in0.0 mm 0.00 in0.0 mm
03:13 AM 56.1°F13.4°C 52.0°F11.1°C 86% 1.5 mph SW2.4 kmh SW 5.0 mph8.0 kmh 29.88 in1011.9 mb 0.00 in0.0 mm 0.00 in0.0 mm 0.00 in0.0 mm
03:18 AM 56.3°F13.5°C 51.8°F11.0°C 85% 1.7 mph SW2.7 kmh SW 3.0 mph4.8 kmh 29.88 in1011.9 mb 0.00 in0.0 mm 0.00 in0.0 mm 0.00 in0.0 mm
03:23 AM 56.4°F13.6°C 51.6°F10.9°C 84% 1.5 mph SW2.4 kmh SW 3.0 mph4.8 kmh 29.88 in1011.9 mb 0.00 in0.0 mm 0.00 in0.0 mm 0.00 in0.0 mm
03:28 AM 56.6°F13.7°C 51.2°F10.7°C 82% 1.2 mph W1.9 kmh W 3.0 mph4.8 kmh 29.87 in1011.5 mb 0.00 in0.0 mm 0.00 in0.0 mm 0.00 in0.0 mm
03:33 AM 56.8°F13.8°C 51.4°F10.8°C 82% 1.0 mph W1.6 kmh W 3.0 mph4.8 kmh 29.87 in1011.5 mb 0.00 in0.0 mm 0.00 in0.0 mm 0.00 in0.0 mm
03:38 AM 56.8°F13.8°C 51.1°F10.6°C 81% 1.0 mph WSW1.6 kmh WSW 3.0 mph4.8 kmh 29.88 in1011.9 mb 0.00 in0.0 mm 0.00 in0.0 mm 0.00 in0.0 mm
03:43 AM 57.1°F13.9°C 50.4°F10.2°C 78% 1.7 mph WSW2.7 kmh WSW 4.0 mph6.4 kmh 29.88 in1011.9 mb 0.00 in0.0 mm 0.00 in0.0 mm 0.00 in0.0 mm
03:48 AM 57.4°F14.1°C 51.0°F10.6°C 79% 2.2 mph WSW3.5 kmh WSW 4.0 mph6.4 kmh 29.88 in1011.9 mb 0.00 in0.0 mm 0.00 in0.0 mm 0.00 in0.0 mm
03:53 AM 57.3°F14.1°C 50.6°F10.3°C 78% 1.0 mph SW1.6 kmh SW 4.0 mph6.4 kmh 29.87 in1011.5 mb 0.00 in0.0 mm 0.00 in0.0 mm 0.00 in0.0 mm
03:58 AM 57.0°F13.9°C 49.9°F9.9°C 77% 1.0 mph SW1.6 kmh SW 4.0 mph6.4 kmh 29.87 in1011.5 mb 0.00 in0.0 mm 0.00 in0.0 mm 0.00 in0.0 mm
04:03 AM 56.9°F13.8°C 50.8°F10.4°C 80% Calm Calm 3.0 mph4.8 kmh 29.86 in1011.2 mb 0.00 in0.0 mm 0.00 in0.0 mm 0.00 in0.0 mm
04:08 AM 56.5°F13.6°C 51.1°F10.6°C 82% 1.6 mph SW2.6 kmh SW 3.0 mph4.8 kmh 29.87 in1011.5 mb 0.00 in0.0 mm 0.00 in0.0 mm 0.00 in0.0 mm
04:13 AM 56.5°F13.6°C 51.1°F10.6°C 82% 2.3 mph SW3.7 kmh SW 4.0 mph6.4 kmh 29.87 in1011.5 mb 0.00 in0.0 mm 0.00 in0.0 mm 0.00 in0.0 mm
04:18 AM 56.6°F13.7°C 50.5°F10.3°C 80% 1.5 mph SW2.4 kmh SW 4.0 mph6.4 kmh 29.87 in1011.5 mb 0.00 in0.0 mm 0.00 in0.0 mm 0.00 in0.0 mm
04:23 AM 56.9°F13.8°C 50.5°F10.3°C 79% 1.2 mph WSW1.9 kmh WSW 4.0 mph6.4 kmh 29.88 in1011.9 mb 0.00 in0.0 mm 0.00 in0.0 mm 0.00 in0.0 mm
04:28 AM 57.2°F14.0°C 49.8°F9.9°C 76% 1.0 mph WSW1.6 kmh WSW 4.0 mph6.4 kmh 29.87 in1011.5 mb 0.00 in0.0 mm 0.00 in0.0 mm 0.00 in0.0 mm
04:33 AM 57.5°F14.2°C 49.4°F9.7°C 74% 1.3 mph WSW2.1 kmh WSW 3.0 mph4.8 kmh 29.87 in1011.5 mb 0.00 in0.0 mm 0.00 in0.0 mm 0.00 in0.0 mm
04:38 AM 57.8°F14.3°C 49.7°F9.8°C 74% 1.0 mph WSW1.6 kmh WSW 3.0 mph4.8 kmh 29.87 in1011.5 mb 0.00 in0.0 mm 0.00 in0.0 mm 0.00 in0.0 mm
04:43 AM 57.8°F14.3°C 48.9°F9.4°C 72% 1.0 mph WSW1.6 kmh WSW 3.0 mph4.8 kmh 29.87 in1011.5 mb 0.00 in0.0 mm 0.00 in0.0 mm 0.00 in0.0 mm
04:48 AM 57.9°F14.4°C 48.7°F9.3°C 71% 1.6 mph WSW2.6 kmh WSW 4.0 mph6.4 kmh 29.88 in1011.9 mb 0.00 in0.0 mm 0.00 in0.0 mm 0.00 in0.0 mm
04:53 AM 58.1°F14.5°C 48.1°F8.9°C 69% 1.5 mph WSW2.4 kmh WSW 4.0 mph6.4 kmh 29.87 in1011.5 mb 0.00 in0.0 mm 0.00 in0.0 mm 0.00 in0.0 mm
04:58 AM 58.4°F14.7°C 47.2°F8.4°C 66% 1.3 mph W2.1 kmh W 4.0 mph6.4 kmh 29.87 in1011.5 mb 0.00 in0.0 mm 0.00 in0.0 mm 0.00 in0.0 mm
05:03 AM 58.6°F14.8°C 47.0°F8.3°C 65% 1.2 mph WSW1.9 kmh WSW 4.0 mph6.4 kmh 29.88 in1011.9 mb 0.00 in0.0 mm 0.00 in0.0 mm 0.00 in0.0 mm
05:08 AM 58.8°F14.9°C 46.4°F8.0°C 63% 1.4 mph WSW2.3 kmh WSW 4.0 mph6.4 kmh 29.88 in1011.9 mb 0.00 in0.0 mm 0.00 in0.0 mm 0.00 in0.0 mm
05:13 AM 59.0°F15.0°C 46.6°F8.1°C 63% Calm Calm 4.0 mph6.4 kmh 29.88 in1011.9 mb 0.00 in0.0 mm 0.00 in0.0 mm 0.00 in0.0 mm
05:18 AM 58.7°F14.8°C 47.1°F8.4°C 65% 1.0 mph W1.6 kmh W 4.0 mph6.4 kmh 29.88 in1011.9 mb 0.00 in0.0 mm 0.00 in0.0 mm 0.00 in0.0 mm
05:23 AM 58.3°F14.6°C 46.6°F8.1°C 65% Calm Calm 4.0 mph6.4 kmh 29.87 in1011.5 mb 0.00 in0.0 mm 0.00 in0.0 mm 0.00 in0.0 mm
05:28 AM 58.2°F14.6°C 46.5°F8.1°C 65% Calm Calm 2.0 mph3.2 kmh 29.88 in1011.9 mb 0.00 in0.0 mm 0.00 in0.0 mm 0.00 in0.0 mm
05:33 AM 58.0°F14.4°C 46.0°F7.8°C 64% Calm Calm 2.0 mph3.2 kmh 29.88 in1011.9 mb 0.00 in0.0 mm 0.00 in0.0 mm 0.00 in0.0 mm
05:38 AM 57.9°F14.4°C 45.9°F7.7°C 64% Calm Calm 1.0 mph1.6 kmh 29.88 in1011.9 mb 0.00 in0.0 mm 0.00 in0.0 mm 0.00 in0.0 mm
05:43 AM 57.5°F14.2°C 46.2°F7.9°C 66% 1.0 mph W1.6 kmh W 1.0 mph1.6 kmh 29.89 in1012.2 mb 0.00 in0.0 mm 0.00 in0.0 mm 0.00 in0.0 mm
05:48 AM 57.3°F14.1°C 46.6°F8.1°C 67% 1.0 mph W1.6 kmh W 1.0 mph1.6 kmh 29.89 in1012.2 mb 0.00 in0.0 mm 0.00 in0.0 mm 0.00 in0.0 mm
05:53 AM 57.1°F13.9°C 46.8°F8.2°C 68% Calm Calm 2.0 mph3.2 kmh 29.89 in1012.2 mb 0.00 in0.0 mm 0.00 in0.0 mm 0.00 in0.0 mm
05:58 AM 56.9°F13.8°C 46.2°F7.9°C 67% Calm Calm 2.0 mph3.2 kmh 29.89 in1012.2 mb 0.00 in0.0 mm 0.00 in0.0 mm 0.00 in0.0 mm
06:03 AM 56.9°F13.8°C 45.8°F7.7°C 66% 1.0 mph W1.6 kmh W 2.0 mph3.2 kmh 29.89 in1012.2 mb 0.00 in0.0 mm 0.00 in0.0 mm 0.00 in0.0 mm
06:08 AM 57.2°F14.0°C 45.7°F7.6°C 65% 1.0 mph W1.6 kmh W 2.0 mph3.2 kmh 29.90 in1012.5 mb 0.00 in0.0 mm 0.00 in0.0 mm 0.00 in0.0 mm
06:13 AM 57.3°F14.1°C 45.8°F7.7°C 65% Calm Calm 1.0 mph1.6 kmh 29.90 in1012.5 mb 0.00 in0.0 mm 0.00 in0.0 mm 0.00 in0.0 mm
06:18 AM 57.4°F14.1°C 45.5°F7.5°C 64% Calm Calm 1.0 mph1.6 kmh 29.90 in1012.5 mb 0.00 in0.0 mm 0.00 in0.0 mm 0.00 in0.0 mm
06:23 AM 57.4°F14.1°C 45.3°F7.4°C 64% 1.0 mph W1.6 kmh W 1.0 mph1.6 kmh 29.90 in1012.5 mb 0.00 in0.0 mm 0.00 in0.0 mm 0.00 in0.0 mm
06:28 AM 57.4°F14.1°C 45.3°F7.4°C 64% 1.0 mph W1.6 kmh W 2.0 mph3.2 kmh 29.91 in1012.9 mb 0.00 in0.0 mm 0.00 in0.0 mm 0.00 in0.0 mm
06:33 AM 57.4°F14.1°C 45.5°F7.5°C 64% 1.8 mph WNW2.9 kmh WNW 4.0 mph6.4 kmh 29.91 in1012.9 mb 0.00 in0.0 mm 0.00 in0.0 mm 0.00 in0.0 mm
06:38 AM 57.4°F14.1°C 45.5°F7.5°C 64% 1.3 mph NW2.1 kmh NW 4.0 mph6.4 kmh 29.90 in1012.5 mb 0.00 in0.0 mm 0.00 in0.0 mm 0.00 in0.0 mm
06:43 AM 57.2°F14.0°C 45.3°F7.4°C 64% 1.5 mph WNW2.4 kmh WNW 4.0 mph6.4 kmh 29.90 in1012.5 mb 0.00 in0.0 mm 0.00 in0.0 mm 0.00 in0.0 mm
06:48 AM 57.1°F13.9°C 45.2°F7.3°C 64% 1.7 mph WNW2.7 kmh WNW 4.0 mph6.4 kmh 29.90 in1012.5 mb 0.00 in0.0 mm 0.00 in0.0 mm 0.00 in0.0 mm
06:53 AM 57.1°F13.9°C 45.2°F7.3°C 64% 1.6 mph NW2.6 kmh NW 3.0 mph4.8 kmh 29.90 in1012.5 mb 0.00 in0.0 mm 0.00 in0.0 mm 0.00 in0.0 mm
06:57 AM 56.9°F13.8°C 45.4°F7.4°C 65% 1.2 mph NW1.9 kmh NW 4.0 mph6.4 kmh 29.90 in1012.5 mb 0.00 in0.0 mm 0.00 in0.0 mm 0.00 in0.0 mm
07:02 AM 56.8°F13.8°C 45.3°F7.4°C 65% Calm Calm 4.0 mph6.4 kmh 29.90 in1012.5 mb 0.00 in0.0 mm 0.00 in0.0 mm 0.00 in0.0 mm
07:07 AM 56.8°F13.8°C 44.9°F7.2°C 64% 1.6 mph NW2.6 kmh NW 4.0 mph6.4 kmh 29.91 in1012.9 mb 0.00 in0.0 mm 0.00 in0.0 mm 0.00 in0.0 mm
07:12 AM 57.0°F13.9°C 44.7°F7.1°C 63% 1.4 mph NW2.3 kmh NW 4.0 mph6.4 kmh 29.91 in1012.9 mb 0.00 in0.0 mm 0.00 in0.0 mm 0.00 in0.0 mm
07:17 AM 57.1°F13.9°C 44.8°F7.1°C 63% 2.1 mph WNW3.4 kmh WNW 4.0 mph6.4 kmh 29.91 in1012.9 mb 0.00 in0.0 mm 0.00 in0.0 mm 0.00 in0.0 mm
07:22 AM 57.2°F14.0°C 44.4°F6.9°C 62% 1.3 mph WNW2.1 kmh WNW 4.0 mph6.4 kmh 29.92 in1013.2 mb 0.00 in0.0 mm 0.00 in0.0 mm 0.00 in0.0 mm
07:27 AM 57.2°F14.0°C 44.0°F6.7°C 61% 1.3 mph NW2.1 kmh NW 4.0 mph6.4 kmh 29.91 in1012.9 mb 0.00 in0.0 mm 0.00 in0.0 mm 0.00 in0.0 mm
07:32 AM 57.3°F14.1°C 44.1°F6.7°C 61% 1.4 mph WNW2.3 kmh WNW 4.0 mph6.4 kmh 29.91 in1012.9 mb 0.00 in0.0 mm 0.00 in0.0 mm 0.00 in0.0 mm
07:37 AM 57.1°F13.9°C 44.8°F7.1°C 63% 1.0 mph WNW1.6 kmh WNW 4.0 mph6.4 kmh 29.91 in1012.9 mb 0.00 in0.0 mm 0.00 in0.0 mm 0.00 in0.0 mm
07:42 AM 56.9°F13.8°C 44.6°F7.0°C 63% 2.3 mph WNW3.7 kmh WNW 6.0 mph9.7 kmh 29.92 in1013.2 mb 0.00 in0.0 mm 0.00 in0.0 mm 0.00 in0.0 mm
07:47 AM 56.8°F13.8°C 44.9°F7.2°C 64% 1.9 mph W3.1 kmh W 6.0 mph9.7 kmh 29.92 in1013.2 mb 0.00 in0.0 mm 0.00 in0.0 mm 0.00 in0.0 mm
07:52 AM 56.7°F13.7°C 44.7°F7.1°C 64% 1.7 mph WNW2.7 kmh WNW 6.0 mph9.7 kmh 29.92 in1013.2 mb 0.00 in0.0 mm 0.00 in0.0 mm 0.00 in0.0 mm
07:57 AM 56.6°F13.7°C 45.1°F7.3°C 65% 1.8 mph NW2.9 kmh NW 6.0 mph9.7 kmh 29.91 in1012.9 mb 0.00 in0.0 mm 0.00 in0.0 mm 0.00 in0.0 mm
08:02 AM 56.6°F13.7°C 45.1°F7.3°C 65% 1.0 mph WNW1.6 kmh WNW 4.0 mph6.4 kmh 29.92 in1013.2 mb 0.00 in0.0 mm 0.00 in0.0 mm 0.00 in0.0 mm
08:07 AM 56.6°F13.7°C 45.1°F7.3°C 65% 1.1 mph NW1.8 kmh NW 3.0 mph4.8 kmh 29.92 in1013.2 mb 0.00 in0.0 mm 0.00 in0.0 mm 0.00 in0.0 mm
08:12 AM 56.8°F13.8°C 44.9°F7.2°C 64% 1.5 mph NW2.4 kmh NW 3.0 mph4.8 kmh 29.91 in1012.9 mb 0.00 in0.0 mm 0.00 in0.0 mm 0.00 in0.0 mm
08:17 AM 57.0°F13.9°C 45.5°F7.5°C 65% 2.0 mph NNW3.2 kmh NNW 3.0 mph4.8 kmh 29.91 in1012.9 mb 0.00 in0.0 mm 0.00 in0.0 mm 0.00 in0.0 mm
08:22 AM 57.0°F13.9°C 44.7°F7.1°C 63% 1.2 mph NW1.9 kmh NW 3.0 mph4.8 kmh 29.92 in1013.2 mb 0.00 in0.0 mm 0.00 in0.0 mm 0.00 in0.0 mm
08:27 AM 57.0°F13.9°C 45.1°F7.3°C 64% 2.2 mph NW3.5 kmh NW 4.0 mph6.4 kmh 29.92 in1013.2 mb 0.00 in0.0 mm 0.00 in0.0 mm 0.00 in0.0 mm
08:32 AM 56.9°F13.8°C 45.3°F7.4°C 65% 2.1 mph NW3.4 kmh NW 4.0 mph6.4 kmh 29.92 in1013.2 mb 0.00 in0.0 mm 0.00 in0.0 mm 0.00 in0.0 mm
08:37 AM 56.7°F13.7°C 45.2°F7.3°C 65% 1.6 mph NW2.6 kmh NW 6.0 mph9.7 kmh 29.92 in1013.2 mb 0.00 in0.0 mm 0.00 in0.0 mm 0.00 in0.0 mm
08:42 AM 56.9°F13.8°C 45.0°F7.2°C 64% 1.0 mph NW1.6 kmh NW 6.0 mph9.7 kmh 29.92 in1013.2 mb 0.00 in0.0 mm 0.00 in0.0 mm 0.00 in0.0 mm
08:47 AM 57.1°F13.9°C 45.6°F7.6°C 65% 1.0 mph NW1.6 kmh NW 6.0 mph9.7 kmh 29.93 in1013.5 mb 0.00 in0.0 mm 0.00 in0.0 mm 0.00 in0.0 mm
08:52 AM 57.2°F14.0°C 45.3°F7.4°C 64% 2.0 mph NNW3.2 kmh NNW 6.0 mph9.7 kmh 29.93 in1013.5 mb 0.00 in0.0 mm 0.00 in0.0 mm 0.00 in0.0 mm
08:57 AM 57.3°F14.1°C 44.9°F7.2°C 63% Calm Calm 4.0 mph6.4 kmh 29.92 in1013.2 mb 0.00 in0.0 mm 0.00 in0.0 mm 0.00 in0.0 mm
09:02 AM 57.6°F14.2°C 43.9°F6.6°C 60% 1.9 mph NW3.1 kmh NW 4.0 mph6.4 kmh 29.93 in1013.5 mb 0.00 in0.0 mm 0.00 in0.0 mm 0.00 in0.0 mm
09:07 AM 58.3°F14.6°C 45.0°F7.2°C 61% 1.0 mph NW1.6 kmh NW 4.0 mph6.4 kmh 29.93 in1013.5 mb 0.00 in0.0 mm 0.00 in0.0 mm 0.00 in0.0 mm
09:12 AM 58.8°F14.9°C 45.1°F7.3°C 60% 2.2 mph NW3.5 kmh NW 4.0 mph6.4 kmh 29.93 in1013.5 mb 0.00 in0.0 mm 0.00 in0.0 mm 0.00 in0.0 mm
09:17 AM 59.0°F15.0°C 44.2°F6.8°C 58% 3.4 mph NW5.5 kmh NW 6.0 mph9.7 kmh 29.93 in1013.5 mb 0.00 in0.0 mm 0.00 in0.0 mm 0.00 in0.0 mm
09:22 AM 59.6°F15.3°C 44.8°F7.1°C 58% Calm Calm 6.0 mph9.7 kmh 29.94 in1013.9 mb 0.00 in0.0 mm 0.00 in0.0 mm 0.00 in0.0 mm
09:27 AM 59.9°F15.5°C 45.2°F7.3°C 58% 1.0 mph NE1.6 kmh NE 6.0 mph9.7 kmh 29.95 in1014.2 mb 0.00 in0.0 mm 0.00 in0.0 mm 0.00 in0.0 mm
09:32 AM 59.9°F15.5°C 45.2°F7.3°C 58% Calm Calm 6.0 mph9.7 kmh 29.94 in1013.9 mb 0.00 in0.0 mm 0.00 in0.0 mm 0.00 in0.0 mm
09:37 AM 60.0°F15.6°C 44.8°F7.1°C 57% Calm Calm 3.0 mph4.8 kmh 29.94 in1013.9 mb 0.00 in0.0 mm 0.00 in0.0 mm 0.00 in0.0 mm
09:42 AM 60.0°F15.6°C 44.3°F6.8°C 56% 1.0 mph NE1.6 kmh NE 2.0 mph3.2 kmh 29.95 in1014.2 mb 0.00 in0.0 mm 0.00 in0.0 mm 0.00 in0.0 mm
09:47 AM 60.1°F15.6°C 44.4°F6.9°C 56% Calm Calm 2.0 mph3.2 kmh 29.95 in1014.2 mb 0.00 in0.0 mm 0.00 in0.0 mm 0.00 in0.0 mm
09:52 AM 60.1°F15.6°C 44.4°F6.9°C 56% Calm Calm 2.0 mph3.2 kmh 29.96 in1014.6 mb 0.00 in0.0 mm 0.00 in0.0 mm 0.00 in0.0 mm
09:57 AM 59.9°F15.5°C 44.3°F6.8°C 56% 1.2 mph WNW1.9 kmh WNW 3.0 mph4.8 kmh 29.96 in1014.6 mb 0.00 in0.0 mm 0.00 in0.0 mm 0.00 in0.0 mm
10:02 AM 59.8°F15.4°C 43.2°F6.2°C 54% 1.3 mph W2.1 kmh W 3.0 mph4.8 kmh 29.96 in1014.6 mb 0.00 in0.0 mm 0.00 in0.0 mm 0.00 in0.0 mm
10:07 AM 59.9°F15.5°C 43.8°F6.6°C 55% 2.8 mph W4.5 kmh W 6.0 mph9.7 kmh 29.97 in1014.9 mb 0.00 in0.0 mm 0.00 in0.0 mm 0.00 in0.0 mm
10:12 AM 59.7°F15.4°C 43.1°F6.2°C 54% 2.5 mph WNW4.0 kmh WNW 6.0 mph9.7 kmh 29.96 in1014.6 mb 0.00 in0.0 mm 0.00 in0.0 mm 0.00 in0.0 mm
10:17 AM 59.9°F15.5°C 42.8°F6.0°C 53% 3.2 mph WNW5.1 kmh WNW 6.0 mph9.7 kmh 29.96 in1014.6 mb 0.00 in0.0 mm 0.00 in0.0 mm 0.00 in0.0 mm
10:22 AM 60.3°F15.7°C 44.1°F6.7°C 55% 1.5 mph NW2.4 kmh NW 6.0 mph9.7 kmh 29.96 in1014.6 mb 0.00 in0.0 mm 0.00 in0.0 mm 0.00 in0.0 mm
10:27 AM 60.5°F15.8°C 43.3°F6.3°C 53% 1.1 mph NW1.8 kmh NW 6.0 mph9.7 kmh 29.96 in1014.6 mb 0.00 in0.0 mm 0.00 in0.0 mm 0.00 in0.0 mm
10:32 AM 60.9°F16.1°C 43.7°F6.5°C 53% 1.9 mph WNW3.1 kmh WNW 6.0 mph9.7 kmh 29.96 in1014.6 mb 0.00 in0.0 mm 0.00 in0.0 mm 0.00 in0.0 mm
10:37 AM 61.5°F16.4°C 43.8°F6.6°C 52% 1.3 mph WNW2.1 kmh WNW 5.0 mph8.0 kmh 29.96 in1014.6 mb 0.00 in0.0 mm 0.00 in0.0 mm 0.00 in0.0 mm
10:42 AM 62.1°F16.7°C 43.3°F6.3°C 50% 3.0 mph NW4.8 kmh NW 5.0 mph8.0 kmh 29.96 in1014.6 mb 0.00 in0.0 mm 0.00 in0.0 mm 0.00 in0.0 mm
10:47 AM 62.3°F16.8°C 41.8°F5.4°C 47% 3.4 mph NW5.5 kmh NW 7.0 mph11.3 kmh 29.96 in1014.6 mb 0.00 in0.0 mm 0.00 in0.0 mm 0.00 in0.0 mm
10:52 AM 62.3°F16.8°C 42.3°F5.7°C 48% 1.1 mph NW1.8 kmh NW 7.0 mph11.3 kmh 29.97 in1014.9 mb 0.00 in0.0 mm 0.00 in0.0 mm 0.00 in0.0 mm
10:57 AM 62.5°F16.9°C 42.0°F5.6°C 47% 2.0 mph NW3.2 kmh NW 7.0 mph11.3 kmh 29.97 in1014.9 mb 0.00 in0.0 mm 0.00 in0.0 mm 0.00 in0.0 mm
11:02 AM 62.9°F17.2°C 42.9°F6.1°C 48% 2.6 mph NW4.2 kmh NW 7.0 mph11.3 kmh 29.97 in1014.9 mb 0.00 in0.0 mm 0.00 in0.0 mm 0.00 in0.0 mm
11:07 AM 63.1°F17.3°C 42.5°F5.8°C 47% 2.0 mph W3.2 kmh W 5.0 mph8.0 kmh 29.96 in1014.6 mb 0.00 in0.0 mm 0.00 in0.0 mm 0.00 in0.0 mm
11:12 AM 63.1°F17.3°C 43.1°F6.2°C 48% 1.2 mph WNW1.9 kmh WNW 5.0 mph8.0 kmh 29.96 in1014.6 mb 0.00 in0.0 mm 0.00 in0.0 mm 0.00 in0.0 mm
11:17 AM 63.2°F17.3°C 41.4°F5.2°C 45% 2.1 mph WNW3.4 kmh WNW 5.0 mph8.0 kmh 29.97 in1014.9 mb 0.00 in0.0 mm 0.00 in0.0 mm 0.00 in0.0 mm
11:22 AM 63.1°F17.3°C 40.7°F4.8°C 44% 3.5 mph WNW5.6 kmh WNW 7.0 mph11.3 kmh 29.97 in1014.9 mb 0.00 in0.0 mm 0.00 in0.0 mm 0.00 in0.0 mm
11:27 AM 63.0°F17.2°C 41.3°F5.2°C 45% 3.0 mph WNW4.8 kmh WNW 7.0 mph11.3 kmh 29.97 in1014.9 mb 0.00 in0.0 mm 0.00 in0.0 mm 0.00 in0.0 mm
11:32 AM 62.8°F17.1°C 41.7°F5.4°C 46% 3.5 mph WNW5.6 kmh WNW 7.0 mph11.3 kmh 29.97 in1014.9 mb 0.00 in0.0 mm 0.00 in0.0 mm 0.00 in0.0 mm
11:37 AM 62.4°F16.9°C 41.9°F5.5°C 47% 2.3 mph W3.7 kmh W 8.0 mph12.9 kmh 29.97 in1014.9 mb 0.00 in0.0 mm 0.00 in0.0 mm 0.00 in0.0 mm
11:42 AM 62.5°F16.9°C 43.1°F6.2°C 49% Calm Calm 8.0 mph12.9 kmh 29.96 in1014.6 mb 0.00 in0.0 mm 0.00 in0.0 mm 0.00 in0.0 mm
11:47 AM 62.4°F16.9°C 42.4°F5.8°C 48% 3.8 mph WNW6.1 kmh WNW 8.0 mph12.9 kmh 29.96 in1014.6 mb 0.00 in0.0 mm 0.00 in0.0 mm 0.00 in0.0 mm
11:52 AM 62.6°F17.0°C 42.1°F5.6°C 47% 2.2 mph NW3.5 kmh NW 8.0 mph12.9 kmh 29.96 in1014.6 mb 0.00 in0.0 mm 0.00 in0.0 mm 0.00 in0.0 mm
11:57 AM 62.9°F17.2°C 42.4°F5.8°C 47% 1.4 mph WNW2.3 kmh WNW 7.0 mph11.3 kmh 29.95 in1014.2 mb 0.00 in0.0 mm 0.00 in0.0 mm 0.00 in0.0 mm
12:02 PM 63.3°F17.4°C 43.3°F6.3°C 48% 1.0 mph WNW1.6 kmh WNW 7.0 mph11.3 kmh 29.95 in1014.2 mb 0.00 in0.0 mm 0.00 in0.0 mm 0.00 in0.0 mm
12:07 PM 63.5°F17.5°C 39.9°F4.4°C 42% 3.6 mph WNW5.8 kmh WNW 8.0 mph12.9 kmh 29.95 in1014.2 mb 0.00 in0.0 mm 0.00 in0.0 mm 0.00 in0.0 mm
12:12 PM 63.5°F17.5°C 41.1°F5.1°C 44% 5.8 mph WNW9.3 kmh WNW 8.0 mph12.9 kmh 29.95 in1014.2 mb 0.00 in0.0 mm 0.00 in0.0 mm 0.00 in0.0 mm
12:18 PM 63.5°F17.5°C 41.1°F5.1°C 44% 2.8 mph NW4.5 kmh NW 8.0 mph12.9 kmh 29.94 in1013.9 mb 0.00 in0.0 mm 0.00 in0.0 mm 0.00 in0.0 mm
12:22 PM 63.9°F17.7°C 42.1°F5.6°C 45% 2.0 mph W3.2 kmh W 8.0 mph12.9 kmh 29.94 in1013.9 mb 0.00 in0.0 mm 0.00 in0.0 mm 0.00 in0.0 mm
12:27 PM 64.0°F17.8°C 41.0°F5.0°C 43% 3.4 mph W5.5 kmh W 8.0 mph12.9 kmh 29.94 in1013.9 mb 0.00 in0.0 mm 0.00 in0.0 mm 0.00 in0.0 mm
12:33 PM 64.0°F17.8°C 41.6°F5.3°C 44% 2.7 mph W4.3 kmh W 8.0 mph12.9 kmh 29.94 in1013.9 mb 0.00 in0.0 mm 0.00 in0.0 mm 0.00 in0.0 mm
12:38 PM 64.3°F17.9°C 41.2°F5.1°C 43% 3.5 mph WNW5.6 kmh WNW 8.0 mph12.9 kmh 29.94 in1013.9 mb 0.00 in0.0 mm 0.00 in0.0 mm 0.00 in0.0 mm
12:43 PM 64.5°F18.1°C 42.0°F5.6°C 44% 3.6 mph W5.8 kmh W 8.0 mph12.9 kmh 29.93 in1013.5 mb 0.00 in0.0 mm 0.00 in0.0 mm 0.00 in0.0 mm
12:48 PM 65.0°F18.3°C 42.5°F5.8°C 44% 1.0 mph WNW1.6 kmh WNW 8.0 mph12.9 kmh 29.93 in1013.5 mb 0.00 in0.0 mm 0.00 in0.0 mm 0.00 in0.0 mm
12:51 PM 65.7°F18.7°C 41.9°F5.5°C 42% 2.3 mph WNW3.7 kmh WNW 7.0 mph11.3 kmh 29.93 in1013.5 mb 0.00 in0.0 mm 0.00 in0.0 mm 0.00 in0.0 mm
12:56 PM 66.1°F18.9°C 41.6°F5.3°C 41% 2.2 mph NW3.5 kmh NW 7.0 mph11.3 kmh 29.92 in1013.2 mb 0.00 in0.0 mm 0.00 in0.0 mm 0.00 in0.0 mm
01:01 PM 66.0°F18.9°C 40.2°F4.6°C 39% 1.8 mph W2.9 kmh W 7.0 mph11.3 kmh 29.92 in1013.2 mb 0.00 in0.0 mm 0.00 in0.0 mm 0.00 in0.0 mm
01:06 PM 65.9°F18.8°C 41.4°F5.2°C 41% 1.4 mph W2.3 kmh W 7.0 mph11.3 kmh 29.92 in1013.2 mb 0.00 in0.0 mm 0.00 in0.0 mm 0.00 in0.0 mm
01:11 PM 66.3°F19.1°C 41.8°F5.4°C 41% 2.8 mph WNW4.5 kmh WNW 7.0 mph11.3 kmh 29.92 in1013.2 mb 0.00 in0.0 mm 0.00 in0.0 mm 0.00 in0.0 mm
01:16 PM 66.7°F19.3°C 42.8°F6.0°C 42% 1.0 mph WSW1.6 kmh WSW 6.0 mph9.7 kmh 29.91 in1012.9 mb 0.00 in0.0 mm 0.00 in0.0 mm 0.00 in0.0 mm
01:21 PM 66.8°F19.3°C 40.9°F4.9°C 39% 2.5 mph SW4.0 kmh SW 5.0 mph8.0 kmh 29.91 in1012.9 mb 0.00 in0.0 mm 0.00 in0.0 mm 0.00 in0.0 mm
01:26 PM 67.3°F19.6°C 41.3°F5.2°C 39% 2.6 mph W4.2 kmh W 6.0 mph9.7 kmh 29.91 in1012.9 mb 0.00 in0.0 mm 0.00 in0.0 mm 0.00 in0.0 mm
01:31 PM 68.0°F20.0°C 41.3°F5.2°C 38% 2.8 mph SW4.5 kmh SW 8.0 mph12.9 kmh 29.91 in1012.9 mb 0.00 in0.0 mm 0.00 in0.0 mm 0.00 in0.0 mm
01:36 PM 68.4°F20.2°C 40.9°F4.9°C 37% 1.8 mph WSW2.9 kmh WSW 8.0 mph12.9 kmh 29.91 in1012.9 mb 0.00 in0.0 mm 0.00 in0.0 mm 0.00 in0.0 mm
01:42 PM 68.4°F20.2°C 40.2°F4.6°C 36% 2.4 mph W3.9 kmh W 8.0 mph12.9 kmh 29.91 in1012.9 mb 0.00 in0.0 mm 0.00 in0.0 mm 0.00 in0.0 mm
01:47 PM 68.9°F20.5°C 39.2°F4.0°C 34% 2.3 mph W3.7 kmh W 8.0 mph12.9 kmh 29.91 in1012.9 mb 0.00 in0.0 mm 0.00 in0.0 mm 0.00 in0.0 mm
01:52 PM 69.0°F20.6°C 38.5°F3.6°C 33% 2.7 mph WNW4.3 kmh WNW 6.0 mph9.7 kmh 29.91 in1012.9 mb 0.00 in0.0 mm 0.00 in0.0 mm 0.00 in0.0 mm
01:57 PM 68.8°F20.4°C 38.3°F3.5°C 33% 3.0 mph WNW4.8 kmh WNW 6.0 mph9.7 kmh 29.91 in1012.9 mb 0.00 in0.0 mm 0.00 in0.0 mm 0.00 in0.0 mm
02:02 PM 68.9°F20.5°C 36.8°F2.7°C 31% 4.4 mph W7.1 kmh W 8.0 mph12.9 kmh 29.91 in1012.9 mb 0.00 in0.0 mm 0.00 in0.0 mm 0.00 in0.0 mm
02:07 PM 68.9°F20.5°C 36.8°F2.7°C 31% 1.9 mph W3.1 kmh W 11.0 mph17.7 kmh 29.91 in1012.9 mb 0.00 in0.0 mm 0.00 in0.0 mm 0.00 in0.0 mm
02:12 PM 69.1°F20.6°C 37.2°F2.9°C 31% 3.1 mph W5.0 kmh W 11.0 mph17.7 kmh 29.91 in1012.9 mb 0.00 in0.0 mm 0.00 in0.0 mm 0.00 in0.0 mm
02:17 PM 68.8°F20.4°C 36.9°F2.7°C 31% 5.6 mph WSW9.0 kmh WSW 12.0 mph19.3 kmh 29.91 in1012.9 mb 0.00 in0.0 mm 0.00 in0.0 mm 0.00 in0.0 mm
02:22 PM 68.8°F20.4°C 38.3°F3.5°C 33% 3.5 mph WSW5.6 kmh WSW 12.0 mph19.3 kmh 29.91 in1012.9 mb 0.00 in0.0 mm 0.00 in0.0 mm 0.00 in0.0 mm
02:27 PM 68.8°F20.4°C 37.5°F3.1°C 32% 3.6 mph WSW5.8 kmh WSW 12.0 mph19.3 kmh 29.91 in1012.9 mb 0.00 in0.0 mm 0.00 in0.0 mm 0.00 in0.0 mm
02:32 PM 68.8°F20.4°C 38.3°F3.5°C 33% 2.4 mph W3.9 kmh W 12.0 mph19.3 kmh 29.91 in1012.9 mb 0.00 in0.0 mm 0.00 in0.0 mm 0.00 in0.0 mm
02:37 PM 69.1°F20.6°C 39.4°F4.1°C 34% 1.9 mph W3.1 kmh W 10.0 mph16.1 kmh 29.91 in1012.9 mb 0.00 in0.0 mm 0.00 in0.0 mm 0.00 in0.0 mm
02:42 PM 68.8°F20.4°C 37.5°F3.1°C 32% 4.8 mph W7.7 kmh W 11.0 mph17.7 kmh 29.91 in1012.9 mb 0.00 in0.0 mm 0.00 in0.0 mm 0.00 in0.0 mm
02:47 PM 68.8°F20.4°C 38.3°F3.5°C 33% 1.3 mph SW2.1 kmh SW 13.0 mph20.9 kmh 29.91 in1012.9 mb 0.00 in0.0 mm 0.00 in0.0 mm 0.00 in0.0 mm
02:52 PM 68.7°F20.4°C 38.2°F3.4°C 33% 3.8 mph W6.1 kmh W 13.0 mph20.9 kmh 29.91 in1012.9 mb 0.00 in0.0 mm 0.00 in0.0 mm 0.00 in0.0 mm
02:57 PM 68.7°F20.4°C 39.0°F3.9°C 34% 1.2 mph NW1.9 kmh NW 13.0 mph20.9 kmh 29.91 in1012.9 mb 0.00 in0.0 mm 0.00 in0.0 mm 0.00 in0.0 mm
03:02 PM 69.2°F20.7°C 37.9°F3.3°C 32% 3.3 mph W5.3 kmh W 13.0 mph20.9 kmh 29.90 in1012.5 mb 0.00 in0.0 mm 0.00 in0.0 mm 0.00 in0.0 mm
03:07 PM 69.4°F20.8°C 37.3°F2.9°C 31% 4.4 mph WNW7.1 kmh WNW 10.0 mph16.1 kmh 29.90 in1012.5 mb 0.00 in0.0 mm 0.00 in0.0 mm 0.00 in0.0 mm
03:12 PM 69.2°F20.7°C 37.1°F2.8°C 31% 3.7 mph W6.0 kmh W 11.0 mph17.7 kmh 29.90 in1012.5 mb 0.00 in0.0 mm 0.00 in0.0 mm 0.00 in0.0 mm
03:17 PM 69.4°F20.8°C 37.3°F2.9°C 31% 3.1 mph W5.0 kmh W 11.0 mph17.7 kmh 29.91 in1012.9 mb 0.00 in0.0 mm 0.00 in0.0 mm 0.00 in0.0 mm
03:22 PM 69.2°F20.7°C 37.1°F2.8°C 31% 5.3 mph W8.5 kmh W 11.0 mph17.7 kmh 29.91 in1012.9 mb 0.00 in0.0 mm 0.00 in0.0 mm 0.00 in0.0 mm
03:27 PM 69.1°F20.6°C 37.0°F2.8°C 31% 5.6 mph W9.0 kmh W 11.0 mph17.7 kmh 29.90 in1012.5 mb 0.00 in0.0 mm 0.00 in0.0 mm 0.00 in0.0 mm
03:32 PM 69.2°F20.7°C 37.9°F3.3°C 32% 2.3 mph WSW3.7 kmh WSW 10.0 mph16.1 kmh 29.91 in1012.9 mb 0.00 in0.0 mm 0.00 in0.0 mm 0.00 in0.0 mm
03:37 PM 69.4°F20.8°C 37.3°F2.9°C 31% 2.5 mph W4.0 kmh W 10.0 mph16.1 kmh 29.91 in1012.9 mb 0.00 in0.0 mm 0.00 in0.0 mm 0.00 in0.0 mm
03:42 PM 69.4°F20.8°C 37.3°F2.9°C 31% 3.4 mph W5.5 kmh W 9.0 mph14.5 kmh 29.91 in1012.9 mb 0.00 in0.0 mm 0.00 in0.0 mm 0.00 in0.0 mm
03:47 PM 69.6°F20.9°C 38.2°F3.4°C 32% 2.2 mph W3.5 kmh W 9.0 mph14.5 kmh 29.91 in1012.9 mb 0.00 in0.0 mm 0.00 in0.0 mm 0.00 in0.0 mm
03:52 PM 69.6°F20.9°C 38.2°F3.4°C 32% 3.2 mph W5.1 kmh W 9.0 mph14.5 kmh 29.92 in1013.2 mb 0.00 in0.0 mm 0.00 in0.0 mm 0.00 in0.0 mm
03:57 PM 69.3°F20.7°C 36.3°F2.4°C 30% 4.7 mph W7.6 kmh W 11.0 mph17.7 kmh 29.91 in1012.9 mb 0.00 in0.0 mm 0.00 in0.0 mm 0.00 in0.0 mm
04:02 PM 69.0°F20.6°C 36.1°F2.3°C 30% 5.5 mph W8.9 kmh W 12.0 mph19.3 kmh 29.92 in1013.2 mb 0.00 in0.0 mm 0.00 in0.0 mm 0.00 in0.0 mm
04:07 PM 68.8°F20.4°C 36.7°F2.6°C 31% 4.3 mph WSW6.9 kmh WSW 12.0 mph19.3 kmh 29.92 in1013.2 mb 0.00 in0.0 mm 0.00 in0.0 mm 0.00 in0.0 mm
04:12 PM 68.8°F20.4°C 36.7°F2.6°C 31% 3.4 mph W5.5 kmh W 12.0 mph19.3 kmh 29.92 in1013.2 mb 0.00 in0.0 mm 0.00 in0.0 mm 0.00 in0.0 mm
04:17 PM 68.6°F20.3°C 35.7°F2.1°C 30% 4.5 mph W7.2 kmh W 11.0 mph17.7 kmh 29.92 in1013.2 mb 0.00 in0.0 mm 0.00 in0.0 mm 0.00 in0.0 mm
04:22 PM 68.2°F20.1°C 35.4°F1.9°C 30% 6.2 mph W10.0 kmh W 12.0 mph19.3 kmh 29.92 in1013.2 mb 0.00 in0.0 mm 0.00 in0.0 mm 0.00 in0.0 mm
04:27 PM 67.9°F19.9°C 35.9°F2.2°C 31% 4.3 mph W6.9 kmh W 12.0 mph19.3 kmh 29.92 in1013.2 mb 0.00 in0.0 mm 0.00 in0.0 mm 0.00 in0.0 mm
04:32 PM 67.7°F19.8°C 35.8°F2.1°C 31% 2.6 mph NW4.2 kmh NW 12.0 mph19.3 kmh 29.92 in1013.2 mb 0.00 in0.0 mm 0.00 in0.0 mm 0.00 in0.0 mm
04:37 PM 67.5°F19.7°C 35.6°F2.0°C 31% 4.7 mph WNW7.6 kmh WNW 12.0 mph19.3 kmh 29.93 in1013.5 mb 0.00 in0.0 mm 0.00 in0.0 mm 0.00 in0.0 mm
04:42 PM 67.1°F19.5°C 36.0°F2.2°C 32% 3.0 mph WNW4.8 kmh WNW 10.0 mph16.1 kmh 29.93 in1013.5 mb 0.00 in0.0 mm 0.00 in0.0 mm 0.00 in0.0 mm
04:47 PM 66.9°F19.4°C 35.9°F2.2°C 32% 3.1 mph W5.0 kmh W 11.0 mph17.7 kmh 29.93 in1013.5 mb 0.00 in0.0 mm 0.00 in0.0 mm 0.00 in0.0 mm
04:52 PM 66.7°F19.3°C 36.5°F2.5°C 33% 2.5 mph WNW4.0 kmh WNW 11.0 mph17.7 kmh 29.93 in1013.5 mb 0.00 in0.0 mm 0.00 in0.0 mm 0.00 in0.0 mm
04:57 PM 66.4°F19.1°C 37.0°F2.8°C 34% 2.2 mph WNW3.5 kmh WNW 11.0 mph17.7 kmh 29.93 in1013.5 mb 0.00 in0.0 mm 0.00 in0.0 mm 0.00 in0.0 mm
05:02 PM 66.1°F18.9°C 36.7°F2.6°C 34% 1.8 mph WNW2.9 kmh WNW 9.0 mph14.5 kmh 29.94 in1013.9 mb 0.00 in0.0 mm 0.00 in0.0 mm 0.00 in0.0 mm
05:07 PM 65.8°F18.8°C 36.4°F2.4°C 34% 2.2 mph WNW3.5 kmh WNW 9.0 mph14.5 kmh 29.94 in1013.9 mb 0.00 in0.0 mm 0.00 in0.0 mm 0.00 in0.0 mm
05:12 PM 65.4°F18.6°C 36.8°F2.7°C 35% 1.6 mph W2.6 kmh W 9.0 mph14.5 kmh 29.94 in1013.9 mb 0.00 in0.0 mm 0.00 in0.0 mm 0.00 in0.0 mm
05:17 PM 65.1°F18.4°C 36.6°F2.6°C 35% 1.8 mph W2.9 kmh W 9.0 mph14.5 kmh 29.94 in1013.9 mb 0.00 in0.0 mm 0.00 in0.0 mm 0.00 in0.0 mm
05:22 PM 64.9°F18.3°C 37.1°F2.8°C 36% 1.3 mph W2.1 kmh W 6.0 mph9.7 kmh 29.94 in1013.9 mb 0.00 in0.0 mm 0.00 in0.0 mm 0.00 in0.0 mm
05:27 PM 64.5°F18.1°C 36.8°F2.7°C 36% 2.3 mph WSW3.7 kmh WSW 5.0 mph8.0 kmh 29.94 in1013.9 mb 0.00 in0.0 mm 0.00 in0.0 mm 0.00 in0.0 mm
05:32 PM 64.1°F17.8°C 37.3°F2.9°C 37% 1.5 mph W2.4 kmh W 5.0 mph8.0 kmh 29.94 in1013.9 mb 0.00 in0.0 mm 0.00 in0.0 mm 0.00 in0.0 mm
05:37 PM 63.8°F17.7°C 37.0°F2.8°C 37% 1.9 mph NW3.1 kmh NW 3.0 mph4.8 kmh 29.94 in1013.9 mb 0.00 in0.0 mm 0.00 in0.0 mm 0.00 in0.0 mm
05:42 PM 63.7°F17.6°C 37.6°F3.1°C 38% 2.0 mph W3.2 kmh W 4.0 mph6.4 kmh 29.94 in1013.9 mb 0.00 in0.0 mm 0.00 in0.0 mm 0.00 in0.0 mm
05:47 PM 63.5°F17.5°C 37.4°F3.0°C 38% 1.1 mph W1.8 kmh W 4.0 mph6.4 kmh 29.94 in1013.9 mb 0.00 in0.0 mm 0.00 in0.0 mm 0.00 in0.0 mm
05:52 PM 63.2°F17.3°C 37.2°F2.9°C 38% 2.0 mph WNW3.2 kmh WNW 5.0 mph8.0 kmh 29.95 in1014.2 mb 0.00 in0.0 mm 0.00 in0.0 mm 0.00 in0.0 mm
05:57 PM 63.0°F17.2°C 37.6°F3.1°C 39% 1.8 mph W2.9 kmh W 7.0 mph11.3 kmh 29.95 in1014.2 mb 0.00 in0.0 mm 0.00 in0.0 mm 0.00 in0.0 mm
06:02 PM 62.9°F17.2°C 36.0°F2.2°C 37% 4.4 mph W7.1 kmh W 11.0 mph17.7 kmh 29.95 in1014.2 mb 0.00 in0.0 mm 0.00 in0.0 mm 0.00 in0.0 mm
06:07 PM 63.0°F17.2°C 35.4°F1.9°C 36% 5.3 mph W8.5 kmh W 12.0 mph19.3 kmh 29.95 in1014.2 mb 0.00 in0.0 mm 0.00 in0.0 mm 0.00 in0.0 mm
06:12 PM 62.8°F17.1°C 35.2°F1.8°C 36% 3.4 mph W5.5 kmh W 12.0 mph19.3 kmh 29.95 in1014.2 mb 0.00 in0.0 mm 0.00 in0.0 mm 0.00 in0.0 mm
06:17 PM 62.5°F16.9°C 35.7°F2.1°C 37% 2.9 mph W4.7 kmh W 12.0 mph19.3 kmh 29.95 in1014.2 mb 0.00 in0.0 mm 0.00 in0.0 mm 0.00 in0.0 mm
06:22 PM 62.2°F16.8°C 35.4°F1.9°C 37% 1.2 mph W1.9 kmh W 12.0 mph19.3 kmh 29.95 in1014.2 mb 0.00 in0.0 mm 0.00 in0.0 mm 0.00 in0.0 mm
06:27 PM 61.9°F16.6°C 35.1°F1.7°C 37% 1.8 mph W2.9 kmh W 9.0 mph14.5 kmh 29.95 in1014.2 mb 0.00 in0.0 mm 0.00 in0.0 mm 0.00 in0.0 mm
06:32 PM 61.7°F16.5°C 35.0°F1.7°C 37% 1.6 mph WNW2.6 kmh WNW 9.0 mph14.5 kmh 29.95 in1014.2 mb 0.00 in0.0 mm 0.00 in0.0 mm 0.00 in0.0 mm
06:37 PM 61.4°F16.3°C 34.7°F1.5°C 37% 2.3 mph WNW3.7 kmh WNW 6.0 mph9.7 kmh 29.95 in1014.2 mb 0.00 in0.0 mm 0.00 in0.0 mm 0.00 in0.0 mm
06:42 PM 61.1°F16.2°C 34.4°F1.3°C 37% 1.5 mph W2.4 kmh W 6.0 mph9.7 kmh 29.96 in1014.6 mb 0.00 in0.0 mm 0.00 in0.0 mm 0.00 in0.0 mm
06:47 PM 60.8°F16.0°C 34.2°F1.2°C 37% 1.0 mph WNW1.6 kmh WNW 5.0 mph8.0 kmh 29.96 in1014.6 mb 0.00 in0.0 mm 0.00 in0.0 mm 0.00 in0.0 mm
06:51 PM 60.5°F15.8°C 34.6°F1.4°C 38% 2.0 mph W3.2 kmh W 5.0 mph8.0 kmh 29.96 in1014.6 mb 0.00 in0.0 mm 0.00 in0.0 mm 0.00 in0.0 mm
06:56 PM 60.2°F15.7°C 34.5°F1.4°C 38% 1.1 mph WSW1.8 kmh WSW 4.0 mph6.4 kmh 29.96 in1014.6 mb 0.00 in0.0 mm 0.00 in0.0 mm 0.00 in0.0 mm
07:01 PM 59.9°F15.5°C 34.2°F1.2°C 38% 2.0 mph WNW3.2 kmh WNW 4.0 mph6.4 kmh 29.96 in1014.6 mb 0.00 in0.0 mm 0.00 in0.0 mm 0.00 in0.0 mm
07:06 PM 59.7°F15.4°C 33.4°F0.8°C 37% 2.1 mph WNW3.4 kmh WNW 5.0 mph8.0 kmh 29.97 in1014.9 mb 0.00 in0.0 mm 0.00 in0.0 mm 0.00 in0.0 mm
07:11 PM 59.7°F15.4°C 33.4°F0.8°C 37% 1.6 mph WNW2.6 kmh WNW 5.0 mph8.0 kmh 29.97 in1014.9 mb 0.00 in0.0 mm 0.00 in0.0 mm 0.00 in0.0 mm
07:16 PM 59.6°F15.3°C 33.1°F0.6°C 37% 2.9 mph WNW4.7 kmh WNW 5.0 mph8.0 kmh 29.97 in1014.9 mb 0.00 in0.0 mm 0.00 in0.0 mm 0.00 in0.0 mm
07:21 PM 59.5°F15.3°C 33.7°F0.9°C 38% 2.6 mph WNW4.2 kmh WNW 6.0 mph9.7 kmh 29.97 in1014.9 mb 0.00 in0.0 mm 0.00 in0.0 mm 0.00 in0.0 mm
07:26 PM 59.2°F15.1°C 33.4°F0.8°C 38% 2.3 mph WNW3.7 kmh WNW 6.0 mph9.7 kmh 29.97 in1014.9 mb 0.00 in0.0 mm 0.00 in0.0 mm 0.00 in0.0 mm
07:31 PM 59.0°F15.0°C 33.2°F0.7°C 38% 2.3 mph WNW3.7 kmh WNW 7.0 mph11.3 kmh 29.98 in1015.2 mb 0.00 in0.0 mm 0.00 in0.0 mm 0.00 in0.0 mm
07:36 PM 59.0°F15.0°C 33.9°F1.1°C 39% 3.1 mph WNW5.0 kmh WNW 10.0 mph16.1 kmh 29.98 in1015.2 mb 0.00 in0.0 mm 0.00 in0.0 mm 0.00 in0.0 mm
07:41 PM 58.8°F14.9°C 33.7°F0.9°C 39% 3.1 mph NW5.0 kmh NW 10.0 mph16.1 kmh 29.98 in1015.2 mb 0.00 in0.0 mm 0.00 in0.0 mm 0.00 in0.0 mm
07:46 PM 58.7°F14.8°C 33.6°F0.9°C 39% 2.1 mph NW3.4 kmh NW 10.0 mph16.1 kmh 29.98 in1015.2 mb 0.00 in0.0 mm 0.00 in0.0 mm 0.00 in0.0 mm
07:51 PM 58.4°F14.7°C 33.4°F0.8°C 39% 2.4 mph NW3.9 kmh NW 10.0 mph16.1 kmh 29.98 in1015.2 mb 0.00 in0.0 mm 0.00 in0.0 mm 0.00 in0.0 mm
07:56 PM 58.3°F14.6°C 33.9°F1.1°C 40% 2.7 mph WNW4.3 kmh WNW 8.0 mph12.9 kmh 29.98 in1015.2 mb 0.00 in0.0 mm 0.00 in0.0 mm 0.00 in0.0 mm
08:01 PM 58.0°F14.4°C 33.8°F1.0°C 40% 2.4 mph NW3.9 kmh NW 7.0 mph11.3 kmh 29.98 in1015.2 mb 0.00 in0.0 mm 0.00 in0.0 mm 0.00 in0.0 mm
08:06 PM 57.9°F14.4°C 33.7°F0.9°C 40% 3.4 mph WNW5.5 kmh WNW 7.0 mph11.3 kmh 29.99 in1015.6 mb 0.00 in0.0 mm 0.00 in0.0 mm 0.00 in0.0 mm
08:11 PM 57.7°F14.3°C 34.1°F1.2°C 41% 3.1 mph WNW5.0 kmh WNW 7.0 mph11.3 kmh 29.99 in1015.6 mb 0.00 in0.0 mm 0.00 in0.0 mm 0.00 in0.0 mm
08:16 PM 57.5°F14.2°C 33.8°F1.0°C 41% 2.0 mph WNW3.2 kmh WNW 7.0 mph11.3 kmh 29.99 in1015.6 mb 0.00 in0.0 mm 0.00 in0.0 mm 0.00 in0.0 mm
08:21 PM 57.2°F14.0°C 34.2°F1.2°C 42% 2.2 mph NW3.5 kmh NW 7.0 mph11.3 kmh 29.99 in1015.6 mb 0.00 in0.0 mm 0.00 in0.0 mm 0.00 in0.0 mm
08:26 PM 57.0°F13.9°C 34.0°F1.1°C 42% 1.8 mph WNW2.9 kmh WNW 7.0 mph11.3 kmh 29.99 in1015.6 mb 0.00 in0.0 mm 0.00 in0.0 mm 0.00 in0.0 mm
08:31 PM 56.6°F13.7°C 34.2°F1.2°C 43% 2.3 mph WNW3.7 kmh WNW 6.0 mph9.7 kmh 29.99 in1015.6 mb 0.00 in0.0 mm 0.00 in0.0 mm 0.00 in0.0 mm
08:36 PM 56.3°F13.5°C 34.1°F1.2°C 43% 2.0 mph NW3.2 kmh NW 7.0 mph11.3 kmh 29.99 in1015.6 mb 0.00 in0.0 mm 0.00 in0.0 mm 0.00 in0.0 mm
08:41 PM 56.0°F13.3°C 34.3°F1.3°C 44% 2.4 mph WNW3.9 kmh WNW 7.0 mph11.3 kmh 29.99 in1015.6 mb 0.00 in0.0 mm 0.00 in0.0 mm 0.00 in0.0 mm
08:46 PM 55.7°F13.2°C 34.6°F1.4°C 45% 2.1 mph WNW3.4 kmh WNW 7.0 mph11.3 kmh 29.99 in1015.6 mb 0.00 in0.0 mm 0.00 in0.0 mm 0.00 in0.0 mm
08:51 PM 55.5°F13.1°C 34.4°F1.3°C 45% 3.5 mph WNW5.6 kmh WNW 7.0 mph11.3 kmh 30.00 in1015.9 mb 0.00 in0.0 mm 0.00 in0.0 mm 0.00 in0.0 mm
08:56 PM 55.5°F13.1°C 35.0°F1.7°C 46% 3.2 mph WNW5.1 kmh WNW 9.0 mph14.5 kmh 30.00 in1015.9 mb 0.00 in0.0 mm 0.00 in0.0 mm 0.00 in0.0 mm
09:01 PM 55.3°F12.9°C 35.3°F1.8°C 47% 3.5 mph WNW5.6 kmh WNW 9.0 mph14.5 kmh 30.00 in1015.9 mb 0.00 in0.0 mm 0.00 in0.0 mm 0.00 in0.0 mm
09:06 PM 55.1°F12.8°C 35.2°F1.8°C 47% 2.5 mph WNW4.0 kmh WNW 10.0 mph16.1 kmh 30.00 in1015.9 mb 0.00 in0.0 mm 0.00 in0.0 mm 0.00 in0.0 mm
09:11 PM 54.9°F12.7°C 35.5°F1.9°C 48% 3.5 mph WNW5.6 kmh WNW 10.0 mph16.1 kmh 30.00 in1015.9 mb 0.00 in0.0 mm 0.00 in0.0 mm 0.00 in0.0 mm
09:16 PM 54.8°F12.7°C 35.4°F1.9°C 48% 3.0 mph WNW4.8 kmh WNW 10.0 mph16.1 kmh 30.00 in1015.9 mb 0.00 in0.0 mm 0.00 in0.0 mm 0.00 in0.0 mm
09:21 PM 54.6°F12.6°C 35.8°F2.1°C 49% 4.2 mph WNW6.8 kmh WNW 9.0 mph14.5 kmh 30.00 in1015.9 mb 0.00 in0.0 mm 0.00 in0.0 mm 0.00 in0.0 mm
09:26 PM 54.4°F12.4°C 36.1°F2.3°C 50% 1.9 mph NW3.1 kmh NW 9.0 mph14.5 kmh 30.00 in1015.9 mb 0.00 in0.0 mm 0.00 in0.0 mm 0.00 in0.0 mm
09:31 PM 54.2°F12.3°C 35.9°F2.2°C 50% 3.0 mph WNW4.8 kmh WNW 9.0 mph14.5 kmh 30.00 in1015.9 mb 0.00 in0.0 mm 0.00 in0.0 mm 0.00 in0.0 mm
09:36 PM 54.1°F12.3°C 35.9°F2.2°C 50% 3.5 mph WNW5.6 kmh WNW 9.0 mph14.5 kmh 30.00 in1015.9 mb 0.00 in0.0 mm 0.00 in0.0 mm 0.00 in0.0 mm
09:41 PM 53.9°F12.2°C 36.2°F2.3°C 51% 2.7 mph WNW4.3 kmh WNW 7.0 mph11.3 kmh 30.00 in1015.9 mb 0.00 in0.0 mm 0.00 in0.0 mm 0.00 in0.0 mm
09:46 PM 53.8°F12.1°C 36.1°F2.3°C 51% 2.8 mph WNW4.5 kmh WNW 7.0 mph11.3 kmh 30.00 in1015.9 mb 0.00 in0.0 mm 0.00 in0.0 mm 0.00 in0.0 mm
09:51 PM 53.6°F12.0°C 35.9°F2.2°C 51% 2.7 mph WNW4.3 kmh WNW 7.0 mph11.3 kmh 30.00 in1015.9 mb 0.00 in0.0 mm 0.00 in0.0 mm 0.00 in0.0 mm
09:56 PM 53.5°F11.9°C 36.3°F2.4°C 52% 2.4 mph WNW3.9 kmh WNW 7.0 mph11.3 kmh 30.00 in1015.9 mb 0.00 in0.0 mm 0.00 in0.0 mm 0.00 in0.0 mm
10:01 PM 53.4°F11.9°C 36.2°F2.3°C 52% 1.8 mph WNW2.9 kmh WNW 7.0 mph11.3 kmh 30.00 in1015.9 mb 0.00 in0.0 mm 0.00 in0.0 mm 0.00 in0.0 mm
10:06 PM 53.3°F11.8°C 36.1°F2.3°C 52% 3.2 mph WNW5.1 kmh WNW 8.0 mph12.9 kmh 30.01 in1016.3 mb 0.00 in0.0 mm 0.00 in0.0 mm 0.00 in0.0 mm
10:11 PM 53.3°F11.8°C 36.1°F2.3°C 52% 2.9 mph WNW4.7 kmh WNW 8.0 mph12.9 kmh 30.01 in1016.3 mb 0.00 in0.0 mm 0.00 in0.0 mm 0.00 in0.0 mm
10:16 PM 53.2°F11.8°C 36.5°F2.5°C 53% 3.1 mph WNW5.0 kmh WNW 8.0 mph12.9 kmh 30.01 in1016.3 mb 0.00 in0.0 mm 0.00 in0.0 mm 0.00 in0.0 mm
10:21 PM 53.0°F11.7°C 36.3°F2.4°C 53% 2.8 mph WNW4.5 kmh WNW 7.0 mph11.3 kmh 30.01 in1016.3 mb 0.00 in0.0 mm 0.00 in0.0 mm 0.00 in0.0 mm
10:26 PM 52.9°F11.6°C 36.7°F2.6°C 54% 2.8 mph WNW4.5 kmh WNW 7.0 mph11.3 kmh 30.02 in1016.6 mb 0.00 in0.0 mm 0.00 in0.0 mm 0.00 in0.0 mm
10:31 PM 52.8°F11.6°C 36.6°F2.6°C 54% 3.4 mph NW5.5 kmh NW 9.0 mph14.5 kmh 30.02 in1016.6 mb 0.00 in0.0 mm 0.00 in0.0 mm 0.00 in0.0 mm
10:36 PM 52.7°F11.5°C 36.6°F2.6°C 54% 3.1 mph NW5.0 kmh NW 9.0 mph14.5 kmh 30.02 in1016.6 mb 0.00 in0.0 mm 0.00 in0.0 mm 0.00 in0.0 mm
10:41 PM 52.5°F11.4°C 36.4°F2.4°C 54% 3.6 mph NW5.8 kmh NW 9.0 mph14.5 kmh 30.02 in1016.6 mb 0.00 in0.0 mm 0.00 in0.0 mm 0.00 in0.0 mm
10:46 PM 52.3°F11.3°C 36.7°F2.6°C 55% 3.2 mph WNW5.1 kmh WNW 9.0 mph14.5 kmh 30.02 in1016.6 mb 0.00 in0.0 mm 0.00 in0.0 mm 0.00 in0.0 mm
10:51 PM 52.2°F11.2°C 37.0°F2.8°C 56% 2.2 mph WNW3.5 kmh WNW 9.0 mph14.5 kmh 30.02 in1016.6 mb 0.00 in0.0 mm 0.00 in0.0 mm 0.00 in0.0 mm
10:56 PM 51.9°F11.1°C 36.8°F2.7°C 56% 3.6 mph WNW5.8 kmh WNW 9.0 mph14.5 kmh 30.02 in1016.6 mb 0.00 in0.0 mm 0.00 in0.0 mm 0.00 in0.0 mm
11:01 PM 51.7°F10.9°C 37.0°F2.8°C 57% 3.0 mph NW4.8 kmh NW 10.0 mph16.1 kmh 30.02 in1016.6 mb 0.00 in0.0 mm 0.00 in0.0 mm 0.00 in0.0 mm
11:06 PM 51.6°F10.9°C 36.9°F2.7°C 57% 3.6 mph NW5.8 kmh NW 10.0 mph16.1 kmh 30.02 in1016.6 mb 0.00 in0.0 mm 0.00 in0.0 mm 0.00 in0.0 mm
11:11 PM 51.4°F10.8°C 37.2°F2.9°C 58% 3.8 mph WNW6.1 kmh WNW 10.0 mph16.1 kmh 30.02 in1016.6 mb 0.00 in0.0 mm 0.00 in0.0 mm 0.00 in0.0 mm
11:16 PM 51.2°F10.7°C 36.9°F2.7°C 58% 3.9 mph WNW6.3 kmh WNW 10.0 mph16.1 kmh 30.02 in1016.6 mb 0.00 in0.0 mm 0.00 in0.0 mm 0.00 in0.0 mm
11:21 PM 51.1°F10.6°C 37.4°F3.0°C 59% 3.4 mph NW5.5 kmh NW 9.0 mph14.5 kmh 30.02 in1016.6 mb 0.00 in0.0 mm 0.00 in0.0 mm 0.00 in0.0 mm
11:26 PM 50.9°F10.5°C 37.2°F2.9°C 59% 3.5 mph NW5.6 kmh NW 9.0 mph14.5 kmh 30.02 in1016.6 mb 0.00 in0.0 mm 0.00 in0.0 mm 0.00 in0.0 mm
11:31 PM 50.7°F10.4°C 37.4°F3.0°C 60% 2.6 mph NW4.2 kmh NW 9.0 mph14.5 kmh 30.02 in1016.6 mb 0.00 in0.0 mm 0.00 in0.0 mm 0.00 in0.0 mm
11:36 PM 50.6°F10.3°C 37.3°F2.9°C 60% 3.4 mph NW5.5 kmh NW 9.0 mph14.5 kmh 30.02 in1016.6 mb 0.00 in0.0 mm 0.00 in0.0 mm 0.00 in0.0 mm
11:41 PM 50.4°F10.2°C 37.1°F2.8°C 60% 3.4 mph NW5.5 kmh NW 9.0 mph14.5 kmh 30.02 in1016.6 mb 0.00 in0.0 mm 0.00 in0.0 mm 0.00 in0.0 mm
11:46 PM 50.2°F10.1°C 37.4°F3.0°C 61% 2.2 mph WNW3.5 kmh WNW 9.0 mph14.5 kmh 30.02 in1016.6 mb 0.00 in0.0 mm 0.00 in0.0 mm 0.00 in0.0 mm
11:51 PM 50.0°F10.0°C 37.2°F2.9°C 61% 4.3 mph NW6.9 kmh NW 9.0 mph14.5 kmh 30.02 in1016.6 mb 0.00 in0.0 mm 0.00 in0.0 mm 0.00 in0.0 mm
11:56 PM 49.8°F9.9°C 37.4°F3.0°C 62% 3.2 mph NW5.1 kmh NW 9.0 mph14.5 kmh 30.02 in1016.6 mb 0.00 in0.0 mm 0.00 in0.0 mm 0.00 in0.0 mm